METAR Data
IDs: Format: Raw Decoded Include TAF

Data at: 2251 UTC 20 Jan 2021

METAR for:KBTP (Butler Cnty/Scholter, PA, US)
Text:KBTP 202156Z AUTO 28005KT 10SM SCT028 M06/M10 A3009 RMK AO2 SNE36 SLP211 P0000 T10561100 FZRANO
Temperature: -5.6°C ( 22°F)
Dewpoint:-10.0°C ( 14°F) [RH = 71%]
Pressure (altimeter):30.09 inches Hg (1019.0 mb) [Sea level pressure: 1021.1 mb]
Winds:from the W (280 degrees) at 6 MPH (5 knots; 2.6 m/s)
Visibility:10 or more sm (16+ km)
Ceiling:at least 12,000 feet AGL
Clouds: scattered clouds at 2800 feet AGL
QC Flag:automated observation with no human augmentation
Text:KBTP 202137Z AUTO VRB04KT 9SM OVC028 M05/M09 A3010 RMK AO2 SNE36 P0000 FZRANO
Temperature: -5.0°C ( 23°F)
Dewpoint: -9.0°C ( 16°F) [RH = 73%]
Pressure (altimeter):30.10 inches Hg (1019.4 mb)
Winds:variable direction winds at 5 MPH (4 knots; 2.1 m/s)
Visibility: 9 sm ( 14 km)
Ceiling:2800 feet AGL
Clouds: overcast cloud deck at 2800 feet AGL
QC Flag:automated observation with no human augmentation
Text:KBTP 202056Z AUTO 25010G15KT 9SM -SN FEW030 M04/M09 A3012 RMK AO2 SNB02E16B32 SLP223 P0000 60000 T10441094 FZRANO
Temperature: -4.4°C ( 24°F)
Dewpoint: -9.4°C ( 15°F) [RH = 68%]
Pressure (altimeter):30.12 inches Hg (1020.1 mb) [Sea level pressure: 1022.3 mb]
Winds:from the WSW (250 degrees) at 12 MPH (10 knots; 5.1 m/s) gusting to 17 MPH (15 knots; 7.7 m/s)
Visibility: 9 sm ( 14 km)
Ceiling:at least 12,000 feet AGL
Clouds: few clouds at 3000 feet AGL
Weather:-SN (light snow)
QC Flag:automated observation with no human augmentation